Gaars Mill, Louisiana
Current Conditions -  °F | °C
As of 3:35 AM on Thursday 18 Dec 2014 (Local Time) from KRSN Reporting Station
Overcast Overcast  
Wind Chill:   Ceiling: 3300
Heat Index:   Visibility: 10mi
Dew Point:   Wind: 6mph
Humidity: 95%   Direction: 80°E
Pressure: 30.2"   Gusts: NA
Location:  32.0727°N, 92.6697°W
Report Text: KRSN 180935Z AUTO 08005KT 10SM SCT007 OVC033 06/06 A3020 RMK AO2 T00630056
Loading
Personal Weather Stations






























Interactive Weather Map New forecast layout! Learn more

10-Day Weather Forecast

Advertisements
Track Severe Weather on mobile